createdAt,value
2023-04-20T00:02:06.946Z,14.75
2023-04-20T00:04:43.141Z,12.63
2023-04-20T00:07:19.283Z,13.35
2023-04-20T00:09:55.592Z,14.55
2023-04-20T00:12:31.657Z,12.27
2023-04-20T00:15:08.584Z,12.95
2023-04-20T00:17:45.856Z,12.40
2023-04-20T00:20:22.279Z,16.10
2023-04-20T00:22:58.492Z,14.65
2023-04-20T00:25:35.010Z,13.90
2023-04-20T00:28:11.596Z,14.35
2023-04-20T00:30:50.501Z,14.07
2023-04-20T00:33:26.623Z,11.68
2023-04-20T00:36:03.150Z,12.80
2023-04-20T00:38:39.399Z,11.60
2023-04-20T00:41:15.703Z,13.10
2023-04-20T00:43:53.717Z,11.43
2023-04-20T00:46:30.280Z,10.77
2023-04-20T00:49:07.781Z,11.38
2023-04-20T00:51:44.093Z,10.50
2023-04-20T00:54:20.809Z,10.18
2023-04-20T00:56:58.918Z,11.68
2023-04-20T00:59:35.372Z,10.48
2023-04-20T01:02:11.732Z,13.65
2023-04-20T01:04:50.968Z,12.13
2023-04-20T01:07:29.498Z,12.90
2023-04-20T01:10:07.696Z,12.37
2023-04-20T01:12:44.085Z,11.80
2023-04-20T01:15:20.314Z,12.90
2023-04-20T01:17:57.352Z,13.90
2023-04-20T01:20:33.987Z,13.75
2023-04-20T01:23:10.322Z,12.32
2023-04-20T01:25:46.383Z,11.48
2023-04-20T01:28:25.824Z,12.25
2023-04-20T01:31:07.148Z,10.82
2023-04-20T01:33:43.429Z,8.55
2023-04-20T01:36:19.869Z,10.10
2023-04-20T01:38:56.403Z,8.35
2023-04-20T01:41:32.482Z,9.13
2023-04-20T01:44:08.847Z,10.88
2023-04-20T01:46:45.276Z,9.25
2023-04-20T01:49:22.771Z,8.15
2023-04-20T01:51:59.045Z,9.80
2023-04-20T01:54:36.903Z,9.18
2023-04-20T01:57:13.264Z,8.80
2023-04-20T01:59:50.944Z,9.57
2023-04-20T02:02:27.465Z,11.60
2023-04-20T02:05:04.102Z,10.80
2023-04-20T02:07:40.574Z,9.27
2023-04-20T02:10:17.395Z,8.80
2023-04-20T02:12:54.723Z,11.77
2023-04-20T02:15:31.062Z,11.02
2023-04-20T02:18:08.266Z,10.38
2023-04-20T02:20:45.368Z,7.68
2023-04-20T02:23:21.780Z,8.40
2023-04-20T02:25:58.161Z,6.82
2023-04-20T02:28:34.389Z,7.30
2023-04-20T02:31:11.925Z,6.20
2023-04-20T02:33:49.287Z,7.65
2023-04-20T02:36:26.558Z,7.85
2023-04-20T02:39:03.089Z,8.70
2023-04-20T02:41:39.107Z,8.73
2023-04-20T02:44:16.252Z,7.82
2023-04-20T02:46:52.778Z,8.73
2023-04-20T02:49:30.967Z,8.95
2023-04-20T02:52:07.400Z,8.73
2023-04-20T02:54:43.551Z,7.35
2023-04-20T02:57:21.656Z,7.10
2023-04-20T02:59:59.429Z,7.63
2023-04-20T03:02:47.493Z,8.40
2023-04-20T03:05:23.976Z,9.05
2023-04-20T03:08:00.468Z,7.65
2023-04-20T03:10:37.042Z,8.23
2023-04-20T03:13:26.231Z,7.78
2023-04-20T03:16:10.122Z,7.45
2023-04-20T03:18:52.772Z,7.95
2023-04-20T03:21:29.480Z,7.38
2023-04-20T03:24:06.752Z,7.68
2023-04-20T03:26:43.137Z,11.98
2023-04-20T03:29:24.199Z,13.02
2023-04-20T03:32:00.945Z,10.52
2023-04-20T03:34:37.647Z,9.60
2023-04-20T03:37:14.741Z,10.38
2023-04-20T03:39:51.309Z,9.02
2023-04-20T03:42:27.470Z,9.70
2023-04-20T03:45:05.828Z,9.10
2023-04-20T03:47:42.162Z,9.82
2023-04-20T03:50:18.558Z,10.40
2023-04-20T03:52:55.357Z,10.68
2023-04-20T03:55:31.473Z,10.07
2023-04-20T03:58:13.375Z,9.65
2023-04-20T04:01:08.041Z,8.43
2023-04-20T04:03:46.979Z,8.43
2023-04-20T04:06:23.288Z,9.38
2023-04-20T04:09:00.866Z,8.75
2023-04-20T04:11:37.227Z,8.70
2023-04-20T04:14:14.003Z,8.70
2023-04-20T04:16:51.080Z,10.10
2023-04-20T04:19:28.233Z,9.63
2023-04-20T04:22:04.365Z,8.98
2023-04-20T04:24:46.227Z,9.18
2023-04-20T04:27:25.265Z,10.85
2023-04-20T04:30:07.008Z,10.02
2023-04-20T04:32:48.349Z,10.50
2023-04-20T04:35:26.050Z,9.98
2023-04-20T04:38:03.828Z,11.15
2023-04-20T04:40:41.073Z,12.00
2023-04-20T04:43:19.588Z,12.13
2023-04-20T04:46:09.651Z,8.55
2023-04-20T04:48:46.203Z,11.80
2023-04-20T04:51:22.338Z,11.40
2023-04-20T04:53:58.753Z,11.32
2023-04-20T04:56:35.183Z,10.10
2023-04-20T04:59:11.633Z,11.73
2023-04-20T05:01:48.007Z,12.13
2023-04-20T05:04:24.697Z,18.55
2023-04-20T05:07:00.977Z,12.18
2023-04-20T05:09:37.535Z,10.95
2023-04-20T05:12:13.590Z,11.32
2023-04-20T05:14:50.023Z,11.52
2023-04-20T05:17:26.415Z,9.27
2023-04-20T05:20:05.646Z,9.90
2023-04-20T05:22:41.826Z,11.10
2023-04-20T05:25:18.702Z,11.48
2023-04-20T05:27:55.150Z,8.80
2023-04-20T05:30:31.364Z,8.02
2023-04-20T05:33:07.910Z,6.93
2023-04-20T05:35:44.147Z,6.22
2023-04-20T05:38:21.022Z,6.20
2023-04-20T05:40:57.610Z,5.28
2023-04-20T05:43:34.914Z,5.75
2023-04-20T05:46:11.215Z,5.63
2023-04-20T05:48:47.707Z,6.65
2023-04-20T05:51:28.361Z,12.00
2023-04-20T05:54:04.650Z,9.43
2023-04-20T05:56:40.989Z,6.40
2023-04-20T05:59:18.069Z,5.97
2023-04-20T06:01:55.882Z,6.28
2023-04-20T06:04:33.404Z,6.25
2023-04-20T06:07:10.911Z,4.47
2023-04-20T06:09:47.716Z,4.63
2023-04-20T06:12:25.707Z,4.95
2023-04-20T06:15:05.909Z,5.55
2023-04-20T06:20:19.161Z,5.57
2023-04-20T06:22:56.399Z,7.45
2023-04-20T06:25:32.357Z,10.07
2023-04-20T06:28:08.456Z,5.93
2023-04-20T06:30:45.081Z,5.70
2023-04-20T06:33:21.351Z,5.72
2023-04-20T06:35:57.739Z,5.53
2023-04-20T06:38:34.055Z,4.75
2023-04-20T06:41:10.424Z,4.88
2023-04-20T06:43:46.747Z,4.22
2023-04-20T06:46:23.004Z,4.57
2023-04-20T06:48:59.195Z,4.55
2023-04-20T06:51:35.842Z,8.10
2023-04-20T06:54:11.918Z,8.50
2023-04-20T06:56:48.183Z,6.53
2023-04-20T06:59:24.672Z,8.25
2023-04-20T07:02:01.024Z,5.68
2023-04-20T07:04:37.500Z,8.55
2023-04-20T07:07:13.665Z,8.00
2023-04-20T07:09:50.087Z,7.47
2023-04-20T07:12:26.312Z,8.52
2023-04-20T07:15:04.367Z,9.70
2023-04-20T07:17:40.880Z,7.10
2023-04-20T07:20:17.416Z,7.07
2023-04-20T07:22:53.741Z,7.28
2023-04-20T07:25:32.259Z,8.40
2023-04-20T07:28:08.484Z,7.90
2023-04-20T07:30:44.948Z,10.35
2023-04-20T07:33:20.953Z,8.48
2023-04-20T07:35:57.541Z,8.15
2023-04-20T07:38:34.175Z,8.02
2023-04-20T07:41:11.110Z,7.10
2023-04-20T07:43:47.210Z,8.65
2023-04-20T07:46:32.307Z,7.00
2023-04-20T07:49:08.730Z,9.38
2023-04-20T07:51:44.973Z,6.38
2023-04-20T07:54:21.317Z,7.07
2023-04-20T07:56:58.409Z,6.40
2023-04-20T07:59:34.571Z,7.28
2023-04-20T08:02:11.422Z,7.47
2023-04-20T08:04:49.171Z,5.97
2023-04-20T08:07:26.134Z,5.65
2023-04-20T08:10:02.660Z,6.00
2023-04-20T08:12:39.936Z,6.70
2023-04-20T08:15:16.151Z,5.50
2023-04-20T08:17:52.528Z,5.30
2023-04-20T08:20:28.961Z,5.85
2023-04-20T08:23:06.013Z,6.53
2023-04-20T08:25:42.429Z,5.38
2023-04-20T08:28:32.492Z,5.68
2023-04-20T08:31:13.217Z,6.75
2023-04-20T08:33:49.583Z,5.50
2023-04-20T08:36:26.175Z,5.20
2023-04-20T08:39:13.264Z,6.57
2023-04-20T08:41:54.815Z,6.30
2023-04-20T08:44:31.485Z,5.95
2023-04-20T08:47:11.148Z,7.50
2023-04-20T08:49:53.316Z,6.25
2023-04-20T08:52:29.486Z,7.47
2023-04-20T08:55:07.447Z,7.78
2023-04-20T08:57:44.019Z,7.57
2023-04-20T09:00:20.866Z,6.30
2023-04-20T09:03:01.406Z,7.90
2023-04-20T09:05:39.358Z,6.57
2023-04-20T09:08:15.713Z,6.25
2023-04-20T09:10:51.986Z,8.93
2023-04-20T09:13:28.864Z,9.82
2023-04-20T09:16:12.897Z,7.57
2023-04-20T09:18:56.945Z,6.93
2023-04-20T09:21:33.084Z,5.65
2023-04-20T09:24:09.430Z,8.02
2023-04-20T09:26:46.540Z,6.50
2023-04-20T09:29:25.104Z,9.63
2023-04-20T09:32:01.725Z,11.32
2023-04-20T09:34:44.541Z,7.53
2023-04-20T09:37:22.167Z,16.05
2023-04-20T09:40:00.328Z,15.77
2023-04-20T09:42:39.002Z,11.73
2023-04-20T09:45:16.364Z,10.95
2023-04-20T09:47:53.541Z,8.35
2023-04-20T09:50:41.751Z,8.73
2023-04-20T09:53:22.622Z,6.63
2023-04-20T09:56:00.775Z,6.35
2023-04-20T09:58:38.151Z,7.07
2023-04-20T10:01:14.481Z,7.80
2023-04-20T10:03:55.944Z,5.63
2023-04-20T10:06:35.391Z,8.00
2023-04-20T10:09:25.619Z,7.47
2023-04-20T10:12:08.428Z,6.53
2023-04-20T10:14:56.559Z,6.38
2023-04-20T10:17:33.608Z,6.53
2023-04-20T10:20:22.362Z,6.80
2023-04-20T10:23:10.877Z,7.03
2023-04-20T10:26:00.293Z,6.38
2023-04-20T10:28:41.510Z,6.82
2023-04-20T10:31:19.914Z,5.95
2023-04-20T10:33:56.262Z,6.72
2023-04-20T10:36:36.253Z,6.18
2023-04-20T10:39:22.444Z,6.00
2023-04-20T10:42:00.673Z,7.13
2023-04-20T10:44:51.245Z,5.72
2023-04-20T10:47:30.434Z,6.40
2023-04-20T10:50:18.281Z,6.32
2023-04-20T10:52:54.387Z,6.00
2023-04-20T10:55:31.250Z,5.15
2023-04-20T10:58:07.594Z,6.28
2023-04-20T11:00:43.977Z,6.18
2023-04-20T11:03:21.847Z,6.03
2023-04-20T11:06:01.938Z,6.97
2023-04-20T11:08:41.139Z,6.90
2023-04-20T11:11:29.565Z,6.10
2023-04-20T11:14:09.344Z,6.18
2023-04-20T11:16:52.937Z,5.85
2023-04-20T11:19:35.207Z,7.00
2023-04-20T11:22:24.757Z,5.07
2023-04-20T11:25:06.312Z,5.85
2023-04-20T11:28:10.108Z,6.07
2023-04-20T11:30:48.828Z,5.43
2023-04-20T11:33:29.746Z,5.35
2023-04-20T11:36:06.487Z,4.55
2023-04-20T11:38:42.794Z,5.38
2023-04-20T11:41:19.138Z,5.57
2023-04-20T11:43:55.518Z,6.57
2023-04-20T11:46:36.956Z,4.82
2023-04-20T11:49:13.775Z,4.32
2023-04-20T11:51:50.600Z,4.65
2023-04-20T11:54:27.800Z,3.88
2023-04-20T11:57:04.509Z,4.22
2023-04-20T11:59:42.414Z,2.75
2023-04-20T12:02:18.867Z,4.20
2023-04-20T12:04:55.325Z,5.03
2023-04-20T12:07:31.626Z,5.85
2023-04-20T12:10:08.928Z,5.00
2023-04-20T12:12:45.508Z,6.10
2023-04-20T12:15:21.950Z,6.20
2023-04-20T12:17:58.559Z,6.35
2023-04-20T12:20:35.071Z,5.95
2023-04-20T12:23:11.472Z,6.00
2023-04-20T12:25:49.090Z,6.40
2023-04-20T12:28:25.337Z,5.90
2023-04-20T12:31:01.964Z,6.40
2023-04-20T12:33:38.063Z,7.90
2023-04-20T12:36:14.576Z,7.03
2023-04-20T12:38:55.385Z,6.13
2023-04-20T12:41:32.494Z,6.97
2023-04-20T12:44:11.447Z,8.93
2023-04-20T12:46:47.631Z,11.60
2023-04-20T12:49:24.223Z,4.07
2023-04-20T12:52:00.800Z,4.13
2023-04-20T12:54:37.188Z,3.97
2023-04-20T12:57:13.512Z,4.63
2023-04-20T12:59:50.202Z,4.78
2023-04-20T13:02:26.817Z,5.40
2023-04-20T13:05:03.644Z,6.65
2023-04-20T13:07:39.948Z,7.60
2023-04-20T13:10:16.849Z,8.50
2023-04-20T13:12:52.992Z,9.65
2023-04-20T13:15:38.921Z,7.80
2023-04-20T13:18:16.062Z,9.52
2023-04-20T13:20:52.434Z,11.73
2023-04-20T13:23:28.554Z,10.35
2023-04-20T13:26:06.920Z,7.80
2023-04-20T13:28:43.281Z,8.27
2023-04-20T13:31:19.508Z,7.88
2023-04-20T13:33:56.013Z,7.40
2023-04-20T13:36:32.672Z,8.75
2023-04-20T13:39:28.954Z,8.23
2023-04-20T13:42:05.451Z,8.48
2023-04-20T13:44:41.827Z,9.45
2023-04-20T13:47:19.218Z,9.35
2023-04-20T13:49:56.048Z,7.88
2023-04-20T13:52:32.348Z,6.90
2023-04-20T13:55:09.055Z,8.27
2023-04-20T13:57:45.623Z,7.07
2023-04-20T14:00:23.052Z,10.30
2023-04-20T14:02:59.208Z,13.57
2023-04-20T14:05:36.324Z,17.63
2023-04-20T14:08:13.071Z,15.60
2023-04-20T14:10:49.988Z,17.52
2023-04-20T14:13:26.330Z,11.15
2023-04-20T14:16:10.421Z,11.07
2023-04-20T14:18:46.795Z,11.68
2023-04-20T14:21:23.212Z,12.38
2023-04-20T14:23:59.452Z,9.60
2023-04-20T14:26:35.878Z,8.90
2023-04-20T14:29:12.112Z,10.90
2023-04-20T14:31:48.788Z,7.80
2023-04-20T14:34:25.326Z,9.18
2023-04-20T14:37:02.418Z,8.40
2023-04-20T14:39:38.897Z,9.27
2023-04-20T14:42:15.349Z,8.10
2023-04-20T14:44:52.136Z,6.85
2023-04-20T14:47:28.593Z,5.93
2023-04-20T14:50:07.140Z,6.07
2023-04-20T14:52:43.736Z,5.93
2023-04-20T14:55:23.046Z,7.65
2023-04-20T14:57:59.214Z,6.78
2023-04-20T15:00:35.404Z,5.47
2023-04-20T15:03:12.576Z,5.22
2023-04-20T15:06:00.864Z,8.20
2023-04-20T15:08:37.068Z,6.88
2023-04-20T15:11:13.573Z,8.10
2023-04-20T15:13:51.435Z,10.10
2023-04-20T15:16:27.994Z,8.70
2023-04-20T15:19:04.352Z,7.00
2023-04-20T15:21:41.991Z,6.63
2023-04-20T15:24:19.285Z,6.47
2023-04-20T15:26:55.507Z,11.77
2023-04-20T15:29:34.548Z,8.40
2023-04-20T15:32:10.626Z,7.32
2023-04-20T15:34:47.202Z,7.35
2023-04-20T15:37:23.233Z,6.68
2023-04-20T15:39:59.910Z,8.23
2023-04-20T15:42:36.213Z,8.10
2023-04-20T15:45:12.925Z,7.65
2023-04-20T15:47:50.515Z,7.10
2023-04-20T15:50:26.647Z,6.60
2023-04-20T15:53:03.080Z,9.57
2023-04-20T15:55:39.491Z,6.07
2023-04-20T15:58:15.677Z,6.35
2023-04-20T16:00:52.172Z,5.55
2023-04-20T16:03:28.695Z,6.95
2023-04-20T16:06:05.725Z,7.97
2023-04-20T16:08:42.045Z,8.05
2023-04-20T16:11:18.828Z,7.75
2023-04-20T16:13:57.249Z,5.10
2023-04-20T16:16:34.023Z,6.27
2023-04-20T16:19:12.746Z,7.38
2023-04-20T16:21:50.445Z,8.30
2023-04-20T16:24:26.866Z,7.43
2023-04-20T16:27:03.296Z,7.30
2023-04-20T16:29:39.541Z,9.23
2023-04-20T16:32:15.832Z,7.78
2023-04-20T16:34:52.359Z,10.02
2023-04-20T16:37:32.851Z,7.00
2023-04-20T16:40:09.708Z,6.82
2023-04-20T16:42:46.122Z,8.25
2023-04-20T16:45:22.438Z,8.30
2023-04-20T16:47:58.790Z,9.95
2023-04-20T16:50:36.472Z,9.32
2023-04-20T16:53:12.572Z,9.65
2023-04-20T16:55:48.998Z,11.20
2023-04-20T16:58:25.298Z,10.18
2023-04-20T17:01:01.795Z,9.57
2023-04-20T17:03:38.147Z,7.68
2023-04-20T17:06:14.288Z,7.63
2023-04-20T17:08:50.692Z,7.65
2023-04-20T17:11:26.985Z,7.03
2023-04-20T17:14:03.626Z,7.22
2023-04-20T17:16:40.017Z,12.93
2023-04-20T17:19:16.972Z,9.98
2023-04-20T17:21:53.286Z,11.68
2023-04-20T17:24:29.784Z,12.25
2023-04-20T17:27:06.333Z,10.95
2023-04-20T17:29:44.178Z,10.38
2023-04-20T17:32:20.547Z,9.63
2023-04-20T17:34:56.900Z,11.48
2023-04-20T17:37:34.789Z,8.30
2023-04-20T17:40:11.778Z,7.93
2023-04-20T17:42:48.083Z,8.60
2023-04-20T17:45:24.484Z,5.82
2023-04-20T17:48:00.880Z,8.32
2023-04-20T17:50:37.118Z,8.55
2023-04-20T17:53:13.367Z,9.80
2023-04-20T17:55:50.242Z,15.05
2023-04-20T17:58:26.313Z,11.30
2023-04-20T18:01:03.254Z,9.05
2023-04-20T18:03:40.061Z,10.73
2023-04-20T18:06:16.513Z,10.75
2023-04-20T18:08:54.443Z,10.38
2023-04-20T18:11:30.992Z,11.20
2023-04-20T18:14:06.989Z,11.50
2023-04-20T18:16:43.320Z,10.48
2023-04-20T18:19:19.679Z,10.55
2023-04-20T18:21:55.749Z,12.40
2023-04-20T18:24:31.780Z,11.15
2023-04-20T18:27:08.865Z,11.38
2023-04-20T18:29:45.094Z,9.90
2023-04-20T18:32:21.617Z,9.80
2023-04-20T18:34:59.799Z,10.55
2023-04-20T18:37:36.841Z,13.60
2023-04-20T18:40:15.494Z,10.20
2023-04-20T18:42:52.863Z,12.40
2023-04-20T18:45:29.202Z,10.73
2023-04-20T18:48:05.849Z,12.93
2023-04-20T18:50:42.299Z,14.60
2023-04-20T18:53:18.690Z,14.13
2023-04-20T18:55:58.465Z,13.23
2023-04-20T19:01:11.160Z,12.10
2023-04-20T19:03:48.209Z,15.95
2023-04-20T19:06:24.495Z,13.98
2023-04-20T19:09:01.178Z,14.43
2023-04-20T19:11:37.538Z,13.63
2023-04-20T19:14:14.217Z,17.17
2023-04-20T19:16:51.019Z,16.88
2023-04-20T19:19:28.173Z,23.85
2023-04-20T19:22:04.915Z,21.45
2023-04-20T19:24:41.369Z,20.52
2023-04-20T19:27:17.693Z,15.88
2023-04-20T19:29:54.000Z,13.98
2023-04-20T19:32:30.379Z,15.45
2023-04-20T19:35:06.931Z,17.38
2023-04-20T19:37:42.938Z,21.38
2023-04-20T19:40:21.483Z,19.80
2023-04-20T19:42:57.642Z,32.37
2023-04-20T19:45:34.282Z,30.85
2023-04-20T19:48:10.517Z,25.92
2023-04-20T19:50:46.987Z,22.92
2023-04-20T19:53:24.593Z,23.42
2023-04-20T19:56:01.137Z,20.15
2023-04-20T19:58:37.876Z,20.52
2023-04-20T20:01:14.050Z,22.40
2023-04-20T20:03:50.563Z,26.88
2023-04-20T20:06:27.207Z,38.58
2023-04-20T20:09:05.676Z,24.35
2023-04-20T20:11:47.962Z,21.30
2023-04-20T20:14:24.042Z,31.77
2023-04-20T20:17:00.411Z,24.33
2023-04-20T20:19:36.634Z,26.38
2023-04-20T20:22:12.840Z,23.52
2023-04-20T20:24:58.323Z,34.58
2023-04-20T20:27:34.496Z,21.40
2023-04-20T20:30:12.450Z,16.08
2023-04-20T20:32:48.898Z,17.83
2023-04-20T20:35:30.837Z,21.08
2023-04-20T20:38:07.305Z,22.02
2023-04-20T20:40:43.508Z,22.13
2023-04-20T20:43:19.747Z,17.58
2023-04-20T20:45:56.128Z,31.40
2023-04-20T20:48:33.154Z,22.52
2023-04-20T20:51:10.666Z,26.08
2023-04-20T20:53:47.485Z,26.38
2023-04-20T20:56:24.325Z,35.55
2023-04-20T20:59:00.819Z,22.45
2023-04-20T21:01:37.282Z,22.00
2023-04-20T21:04:13.863Z,23.65
2023-04-20T21:06:50.274Z,22.20
2023-04-20T21:09:27.048Z,24.45
2023-04-20T21:12:03.836Z,33.42
2023-04-20T21:14:40.172Z,34.88
2023-04-20T21:17:34.464Z,26.40
2023-04-20T21:20:11.935Z,38.28
2023-04-20T21:22:48.620Z,22.35
2023-04-20T21:25:25.143Z,22.20
2023-04-20T21:28:01.571Z,21.23
2023-04-20T21:30:37.935Z,19.52
2023-04-20T21:33:14.737Z,21.17
2023-04-20T21:35:50.899Z,20.02
2023-04-20T21:38:27.447Z,30.33
2023-04-20T21:41:03.867Z,37.83
2023-04-20T21:43:41.298Z,30.50
2023-04-20T21:46:19.091Z,37.13
2023-04-20T21:48:55.608Z,39.83
2023-04-20T21:51:32.358Z,41.63
2023-04-20T21:54:08.660Z,30.25
2023-04-20T21:56:45.882Z,28.15
2023-04-20T21:59:22.050Z,28.90
2023-04-20T22:01:58.463Z,29.98
2023-04-20T22:04:35.129Z,25.55
2023-04-20T22:07:11.662Z,17.65
2023-04-20T22:09:48.264Z,19.05
2023-04-20T22:12:38.453Z,21.70
2023-04-20T22:15:16.072Z,20.27
2023-04-20T22:17:52.442Z,13.45
2023-04-20T22:20:28.888Z,16.40
2023-04-20T22:23:05.158Z,17.38
2023-04-20T22:25:42.328Z,15.40
2023-04-20T22:28:18.735Z,15.02
2023-04-20T22:30:55.176Z,15.30
2023-04-20T22:33:31.409Z,11.85
2023-04-20T22:36:08.605Z,10.95
2023-04-20T22:38:44.761Z,8.25
2023-04-20T22:41:21.098Z,11.70
2023-04-20T22:43:57.486Z,12.75
2023-04-20T22:46:33.918Z,14.23
2023-04-20T22:49:10.321Z,14.60
2023-04-20T22:51:46.984Z,13.48
2023-04-20T22:54:24.193Z,10.73
2023-04-20T22:57:01.501Z,10.68
2023-04-20T22:59:37.515Z,12.65
2023-04-20T23:02:13.901Z,13.50
2023-04-20T23:04:50.859Z,12.13
2023-04-20T23:07:27.232Z,12.68
2023-04-20T23:10:05.439Z,19.02
2023-04-20T23:12:43.938Z,13.63
2023-04-20T23:15:21.132Z,13.18
2023-04-20T23:17:57.553Z,11.05
2023-04-20T23:20:33.741Z,9.57
2023-04-20T23:23:10.931Z,15.77
2023-04-20T23:25:47.293Z,12.18
2023-04-20T23:28:23.287Z,15.68
2023-04-20T23:30:59.872Z,17.00
2023-04-20T23:33:36.113Z,16.15
2023-04-20T23:36:12.686Z,14.48
2023-04-20T23:38:48.710Z,18.38
2023-04-20T23:41:24.932Z,12.02
2023-04-20T23:44:01.289Z,10.27
2023-04-20T23:46:38.280Z,11.93
2023-04-20T23:49:14.527Z,13.85
2023-04-20T23:51:50.896Z,14.25
2023-04-20T23:54:27.119Z,9.27
2023-04-20T23:57:03.434Z,9.40
2023-04-20T23:59:40.059Z,8.60
